Time;durP1;ratioP1;P1;durP2;ratioP2;P2;SDS_P1;SDS_P2;PMS_P1;PMS_P2;Temp;Humidity;BMP_temperature;BMP_pressure;BME280_temperature;BME280_humidity;BME280_pressure;Samples;Min_cycle;Max_cycle;Signal;HPM_P1;HPM_P2
2022/09/17 00:02:15;;;;;;;3.20;1.65;;;15.60;54.40;;;;;;4895356;29;20197;-39
2022/09/17 00:04:46;;;;;;;2.78;1.65;;;15.60;54.40;;;;;;4895633;29;20204;-36
2022/09/17 00:07:16;;;;;;;6.80;1.92;;;15.70;54.40;;;;;;4896400;29;20220;-39
2022/09/17 00:09:47;;;;;;;4.38;2.15;;;15.70;54.40;;;;;;4893689;29;20645;-35
2022/09/17 00:12:18;;;;;;;3.45;2.08;;;15.70;54.30;;;;;;4875932;29;20216;-35
2022/09/17 00:14:50;;;;;;;3.95;1.77;;;15.80;54.30;;;;;;4870989;29;20206;-38
2022/09/17 00:17:21;;;;;;;6.13;2.13;;;15.80;54.40;;;;;;4858189;29;20218;-39
2022/09/17 00:19:52;;;;;;;4.03;2.72;;;15.80;54.40;;;;;;4857823;29;20678;-39
2022/09/17 00:22:22;;;;;;;4.70;2.28;;;15.90;54.40;;;;;;4858134;29;20202;-43
2022/09/17 00:24:53;;;;;;;5.60;2.10;;;15.90;54.40;;;;;;4857698;29;20578;-44
2022/09/17 00:27:23;;;;;;;5.03;2.20;;;15.90;54.40;;;;;;4857571;29;20226;-37
2022/09/17 00:29:56;;;;;;;3.83;2.20;;;16.00;54.50;;;;;;4866260;29;20197;-35
2022/09/17 00:32:27;;;;;;;4.50;1.95;;;16.00;54.50;;;;;;4876508;29;20210;-36
2022/09/17 00:34:57;;;;;;;4.32;2.20;;;16.10;54.50;;;;;;4876484;29;20198;-36
2022/09/17 00:37:29;;;;;;;5.22;2.10;;;16.10;54.50;;;;;;4876254;29;20225;-37
2022/09/17 00:39:59;;;;;;;6.43;2.05;;;16.10;54.50;;;;;;4875855;29;20198;-45
2022/09/17 00:42:30;;;;;;;4.32;2.30;;;16.20;54.60;;;;;;4876108;29;20197;-36
2022/09/17 00:45:03;;;;;;;5.90;1.98;;;16.20;54.60;;;;;;4875662;29;20198;-38
2022/09/17 00:47:35;;;;;;;3.80;2.00;;;16.30;54.50;;;;;;4875899;29;20228;-35
2022/09/17 00:50:09;;;;;;;4.65;2.10;;;16.30;54.50;;;;;;4875994;29;20202;-39
2022/09/17 00:52:43;;;;;;;7.50;2.15;;;16.30;54.50;;;;;;4876314;29;20206;-36
2022/09/17 00:55:20;;;;;;;3.00;1.90;;;16.30;54.50;;;;;;4875912;29;20197;-37
2022/09/17 00:57:52;;;;;;;5.63;2.42;;;16.40;54.60;;;;;;4875862;29;20240;-36
2022/09/17 01:00:25;;;;;;;5.68;2.17;;;16.50;54.60;;;;;;4875629;29;20209;-36
2022/09/17 01:02:57;;;;;;;4.65;2.20;;;16.50;54.70;;;;;;4876190;29;20228;-42
2022/09/17 01:05:33;;;;;;;6.07;2.75;;;16.50;54.60;;;;;;4875775;29;20225;-37
2022/09/17 01:08:14;;;;;;;5.80;2.55;;;16.50;54.60;;;;;;4875767;29;20914;-37
2022/09/17 01:11:01;;;;;;;5.45;2.40;;;16.50;54.70;;;;;;4875868;29;20228;-36
2022/09/17 01:13:39;;;;;;;5.38;3.00;;;16.60;54.70;;;;;;4876331;29;20213;-37
2022/09/17 01:16:20;;;;;;;4.60;2.47;;;16.60;54.70;;;;;;4879706;29;20202;-37
2022/09/17 01:19:03;;;;;;;5.13;2.15;;;16.70;54.60;;;;;;4879677;29;20242;-35
2022/09/17 01:21:47;;;;;;;5.85;2.65;;;16.70;54.60;;;;;;4880007;29;20205;-43
2022/09/17 01:24:43;;;;;;;7.50;2.53;;;16.80;54.60;;;;;;4879706;29;20201;-35
2022/09/17 01:27:48;;;;;;;6.32;2.70;;;16.80;54.50;;;;;;4879189;29;20690;-35
2022/09/17 01:30:22;;;;;;;6.32;2.72;;;16.80;54.60;;;;;;4879097;29;20551;-37
2022/09/17 01:33:00;;;;;;;4.78;2.30;;;16.90;54.50;;;;;;4879406;29;20232;-35
2022/09/17 01:35:39;;;;;;;4.05;2.10;;;16.90;54.60;;;;;;4879094;29;20205;-38
2022/09/17 01:38:16;;;;;;;4.05;2.45;;;16.90;54.60;;;;;;4878576;29;20221;-35
2022/09/17 01:40:56;;;;;;;4.53;2.47;;;16.90;54.60;;;;;;4878838;29;20201;-39
2022/09/17 01:43:30;;;;;;;5.05;2.28;;;17.00;54.60;;;;;;4878850;29;20208;-35
2022/09/17 01:46:05;;;;;;;5.75;2.40;;;17.00;54.60;;;;;;4878891;29;20226;-39
2022/09/17 01:48:41;;;;;;;5.90;2.13;;;17.00;54.60;;;;;;4879026;29;20228;-36
2022/09/17 01:51:16;;;;;;;4.00;2.30;;;17.10;54.60;;;;;;4878994;29;20696;-36
2022/09/17 01:53:52;;;;;;;3.75;2.58;;;17.10;54.50;;;;;;4879760;29;20205;-35
2022/09/17 01:56:25;;;;;;;4.45;2.13;;;17.10;54.40;;;;;;4878694;29;20255;-36
2022/09/17 01:59:02;;;;;;;3.85;2.20;;;17.20;54.40;;;;;;4879003;29;20208;-35
2022/09/17 02:01:36;;;;;;;4.80;2.15;;;17.20;54.30;;;;;;4878470;29;20212;-36
2022/09/17 02:04:13;;;;;;;5.60;2.30;;;17.20;54.30;;;;;;4880886;29;20245;-36
2022/09/17 02:06:49;;;;;;;3.80;2.05;;;17.30;54.20;;;;;;4878423;29;20705;-38
2022/09/17 02:09:23;;;;;;;4.00;1.95;;;17.30;54.10;;;;;;4878524;29;20213;-36
2022/09/17 02:11:58;;;;;;;5.00;2.15;;;17.30;54.10;;;;;;4878173;29;20205;-39
2022/09/17 02:14:35;;;;;;;3.97;2.10;;;17.40;54.10;;;;;;4878277;29;20212;-35
2022/09/17 02:17:14;;;;;;;4.40;1.80;;;17.40;54.00;;;;;;4860175;29;20232;-36
2022/09/17 02:19:46;;;;;;;4.68;1.92;;;17.40;53.90;;;;;;4860032;29;20205;-36
2022/09/17 02:22:27;;;;;;;4.05;2.03;;;17.40;53.90;;;;;;4859820;29;20210;-40
2022/09/17 02:25:04;;;;;;;6.25;2.05;;;17.50;53.90;;;;;;4859139;29;20670;-37
2022/09/17 02:27:44;;;;;;;3.65;2.20;;;17.50;53.80;;;;;;4859223;29;20244;-35
2022/09/17 02:30:15;;;;;;;4.18;1.98;;;17.50;53.80;;;;;;4865203;29;20209;-35
2022/09/17 02:32:46;;;;;;;3.45;2.10;;;17.50;53.80;;;;;;4877797;29;20232;-35
2022/09/17 02:35:19;;;;;;;3.45;2.00;;;17.60;53.80;;;;;;4878127;29;20197;-38
2022/09/17 02:37:50;;;;;;;3.20;1.90;;;17.60;53.80;;;;;;4877969;29;20236;-39
2022/09/17 02:40:27;;;;;;;4.60;2.08;;;17.70;53.80;;;;;;4878167;29;20210;-38
2022/09/17 02:43:08;;;;;;;3.75;2.15;;;17.70;54.50;;;;;;4878088;29;20676;-36
2022/09/17 02:45:47;;;;;;;6.13;2.55;;;17.70;53.80;;;;;;4877722;29;20202;-35
2022/09/17 02:48:41;;;;;;;5.00;2.13;;;17.80;53.90;;;;;;4878467;29;20872;-36
2022/09/17 02:51:32;;;;;;;4.53;2.25;;;17.80;53.80;;;;;;4878627;29;20222;-38
2022/09/17 02:54:13;;;;;;;6.22;2.40;;;17.90;53.80;;;;;;4878814;29;20213;-36
2022/09/17 02:56:50;;;;;;;3.97;1.95;;;17.90;53.50;;;;;;4877683;29;20601;-36
2022/09/17 02:59:26;;;;;;;4.38;1.80;;;17.90;53.50;;;;;;4875355;29;20229;-35
2022/09/17 03:02:01;;;;;;;3.75;1.90;;;18.00;53.50;;;;;;4876505;29;20626;-36
2022/09/17 03:04:33;;;;;;;4.53;2.30;;;18.00;53.40;;;;;;4887429;29;20217;-36
2022/09/17 03:07:07;;;;;;;4.35;1.90;;;18.10;53.50;;;;;;4873928;29;20297;-44
2022/09/17 03:09:38;;;;;;;4.13;2.13;;;18.10;53.30;;;;;;4881068;29;20224;-37
2022/09/17 03:12:09;;;;;;;6.03;2.00;;;18.10;53.20;;;;;;4878458;29;20197;-35
2022/09/17 03:14:40;;;;;;;5.10;2.00;;;18.20;53.20;;;;;;4883137;29;20189;-36
2022/09/17 03:17:10;;;;;;;5.32;2.05;;;18.20;53.20;;;;;;4896183;29;20237;-35
2022/09/17 03:19:41;;;;;;;4.35;2.00;;;18.20;53.10;;;;;;4883612;29;20193;-36
2022/09/17 03:22:14;;;;;;;4.00;1.92;;;18.20;53.00;;;;;;4896357;29;20197;-36
2022/09/17 03:24:44;;;;;;;5.30;2.08;;;18.20;53.00;;;;;;4897033;29;20560;-37
2022/09/17 03:27:15;;;;;;;4.65;1.90;;;18.30;53.10;;;;;;4896224;29;20248;-35
2022/09/17 03:29:46;;;;;;;4.63;2.25;;;18.30;53.10;;;;;;4897068;29;20196;-36
2022/09/17 03:32:16;;;;;;;5.57;2.38;;;18.30;53.10;;;;;;4896297;29;20216;-35
2022/09/17 03:34:47;;;;;;;4.55;1.88;;;18.40;53.10;;;;;;4896259;29;20201;-35
2022/09/17 03:37:20;;;;;;;6.22;2.38;;;18.40;52.90;;;;;;4881032;29;20217;-36
2022/09/17 03:39:51;;;;;;;5.35;1.98;;;18.40;53.00;;;;;;4878407;29;20281;-36
2022/09/17 03:42:21;;;;;;;5.30;1.98;;;18.40;52.90;;;;;;4877674;29;20565;-40
2022/09/17 03:44:52;;;;;;;7.30;2.38;;;18.50;52.70;;;;;;4881450;29;20322;-43
2022/09/17 03:47:23;;;;;;;4.40;2.00;;;18.50;52.50;;;;;;4896602;29;20228;-38
2022/09/17 03:49:53;;;;;;;4.43;2.20;;;18.50;52.50;;;;;;4895829;29;20189;-43
2022/09/17 03:52:26;;;;;;;4.65;2.10;;;18.60;52.40;;;;;;4896057;29;20201;-38
2022/09/17 03:54:56;;;;;;;5.07;1.60;;;18.60;52.30;;;;;;4893398;29;20203;-44
2022/09/17 03:57:27;;;;;;;5.53;2.00;;;18.60;52.20;;;;;;4896041;29;20229;-37
2022/09/17 03:59:58;;;;;;;4.32;1.73;;;18.60;52.20;;;;;;4895335;29;20654;-44
2022/09/17 04:02:29;;;;;;;2.92;1.60;;;18.60;52.20;;;;;;4896105;29;20197;-36
2022/09/17 04:04:59;;;;;;;4.70;1.70;;;18.60;52.10;;;;;;4895081;29;20658;-36
2022/09/17 04:07:32;;;;;;;3.38;1.77;;;18.70;52.20;;;;;;4895575;29;20695;-44
2022/09/17 04:10:04;;;;;;;2.85;1.60;;;18.70;52.30;;;;;;4891548;29;20208;-40
2022/09/17 04:12:34;;;;;;;4.60;2.08;;;18.70;52.10;;;;;;4895954;29;20201;-36
2022/09/17 04:15:05;;;;;;;4.07;1.90;;;18.70;52.00;;;;;;4896520;29;20209;-38
2022/09/17 04:17:36;;;;;;;5.88;2.15;;;18.80;51.90;;;;;;4895167;29;20570;-36
2022/09/17 04:20:07;;;;;;;2.92;1.65;;;18.80;51.90;;;;;;4895492;29;20204;-37
2022/09/17 04:22:40;;;;;;;4.72;2.10;;;18.80;51.90;;;;;;4895117;29;20729;-36
2022/09/17 04:25:11;;;;;;;4.57;1.92;;;18.80;51.70;;;;;;4895699;29;20197;-36
2022/09/17 04:27:41;;;;;;;4.85;1.60;;;18.80;51.70;;;;;;4893205;29;20239;-35
2022/09/17 04:30:13;;;;;;;4.18;1.50;;;18.80;51.60;;;;;;4880093;29;20600;-36
2022/09/17 04:32:44;;;;;;;6.40;1.67;;;18.90;51.70;;;;;;4895484;29;20209;-38
2022/09/17 04:35:15;;;;;;;4.03;1.73;;;18.80;51.60;;;;;;4895699;29;20204;-37
2022/09/17 04:37:55;;;;;;;3.72;2.00;;;18.90;51.70;;;;;;4896045;29;20221;-43
2022/09/17 04:40:27;;;;;;;3.42;1.52;;;18.90;51.80;;;;;;4893860;29;20248;-39
2022/09/17 04:42:58;;;;;;;3.63;1.83;;;18.90;51.70;;;;;;4895574;29;20557;-42
2022/09/17 04:45:29;;;;;;;4.32;2.28;;;18.90;51.70;;;;;;4894640;29;20189;-36
2022/09/17 04:48:00;;;;;;;3.65;1.70;;;18.90;51.80;;;;;;4895231;29;20228;-40
2022/09/17 04:50:31;;;;;;;4.18;1.92;;;18.90;51.70;;;;;;4894857;29;20189;-38
2022/09/17 04:53:04;;;;;;;6.18;1.95;;;18.90;51.60;;;;;;4895315;29;20235;-43
2022/09/17 04:55:34;;;;;;;3.90;1.88;;;19.00;51.70;;;;;;4888672;29;20193;-39
2022/09/17 04:58:05;;;;;;;2.42;1.42;;;19.00;51.60;;;;;;4894690;29;20232;-44
2022/09/17 05:00:36;;;;;;;3.72;2.33;;;18.90;51.50;;;;;;4895406;29;20193;-46
2022/09/17 05:03:06;;;;;;;4.22;1.92;;;18.90;51.50;;;;;;4895372;29;20237;-38
2022/09/17 05:05:37;;;;;;;3.25;1.60;;;18.90;51.50;;;;;;4895057;29;20193;-36
2022/09/17 05:08:10;;;;;;;5.40;1.90;;;18.90;51.60;;;;;;4895164;29;20236;-39
2022/09/17 05:10:41;;;;;;;7.20;2.42;;;18.90;51.50;;;;;;4892151;29;20650;-43
2022/09/17 05:13:12;;;;;;;7.40;2.30;;;18.90;51.50;;;;;;4895378;29;20200;-39
2022/09/17 05:15:42;;;;;;;5.30;2.33;;;18.90;51.40;;;;;;4895551;29;20893;-49
2022/09/17 05:18:13;;;;;;;5.95;2.50;;;18.90;51.40;;;;;;4894543;29;20228;-40
2022/09/17 05:20:44;;;;;;;5.18;2.30;;;18.90;51.40;;;;;;4895132;29;20197;-42
2022/09/17 05:23:17;;;;;;;5.70;2.40;;;18.90;51.30;;;;;;4895712;29;20205;-42
2022/09/17 05:25:47;;;;;;;6.28;2.38;;;18.90;51.40;;;;;;4895484;29;20198;-41
2022/09/17 05:28:18;;;;;;;6.22;2.40;;;18.80;51.30;;;;;;4895415;29;20701;-42
2022/09/17 05:30:49;;;;;;;4.43;1.92;;;18.80;51.90;;;;;;4894850;29;20201;-49
2022/09/17 05:33:20;;;;;;;5.65;1.92;;;18.80;51.30;;;;;;4895657;29;20200;-43
2022/09/17 05:35:50;;;;;;;5.10;2.05;;;18.80;51.30;;;;;;4895730;29;20197;-39
2022/09/17 05:38:23;;;;;;;5.00;2.20;;;18.80;51.30;;;;;;4895579;29;20225;-36
2022/09/17 05:40:54;;;;;;;7.90;2.88;;;18.80;51.50;;;;;;4882999;29;20194;-38
2022/09/17 05:43:24;;;;;;;9.77;3.45;;;18.80;51.50;;;;;;4875273;29;20197;-36
2022/09/17 05:45:56;;;;;;;11.00;4.20;;;18.70;51.50;;;;;;4875733;29;20205;-35
2022/09/17 05:48:26;;;;;;;7.18;3.17;;;18.70;51.50;;;;;;4875807;29;20229;-36
2022/09/17 05:50:58;;;;;;;6.22;3.00;;;18.70;51.40;;;;;;4857358;29;20296;-35
2022/09/17 05:53:31;;;;;;;5.20;2.60;;;18.70;51.50;;;;;;4857675;29;20210;-36
2022/09/17 05:56:02;;;;;;;8.02;3.00;;;18.70;51.50;;;;;;4857263;29;20448;-37
2022/09/17 05:58:33;;;;;;;6.50;2.67;;;18.60;51.50;;;;;;4856619;29;20229;-35
2022/09/17 06:01:04;;;;;;;8.57;3.53;;;18.70;51.50;;;;;;4858760;29;20206;-36
2022/09/17 06:03:35;;;;;;;7.40;2.80;;;18.60;51.50;;;;;;4860493;29;20194;-38
2022/09/17 06:06:06;;;;;;;7.47;2.78;;;18.60;51.50;;;;;;4860484;29;20202;-36
2022/09/17 06:08:39;;;;;;;7.60;3.08;;;18.50;51.50;;;;;;4860050;29;20273;-36
2022/09/17 06:11:10;;;;;;;5.68;2.78;;;18.50;51.60;;;;;;4873228;29;20733;-38
2022/09/17 06:13:42;;;;;;;5.40;2.58;;;18.50;51.60;;;;;;4878255;29;20206;-39
2022/09/17 06:16:13;;;;;;;6.03;2.90;;;18.50;51.60;;;;;;4881416;29;20205;-36
2022/09/17 06:18:44;;;;;;;6.72;2.80;;;18.50;51.60;;;;;;4878335;29;20221;-37
2022/09/17 06:21:16;;;;;;;5.85;2.47;;;18.50;51.60;;;;;;4878823;29;20206;-38
2022/09/17 06:23:48;;;;;;;5.50;2.38;;;18.40;51.60;;;;;;4878550;29;20221;-36
2022/09/17 06:26:19;;;;;;;5.47;3.00;;;18.40;51.60;;;;;;4878065;29;20202;-36
2022/09/17 06:28:50;;;;;;;6.35;2.55;;;18.40;51.70;;;;;;4878362;29;20230;-35
2022/09/17 06:31:21;;;;;;;4.97;2.20;;;18.30;51.60;;;;;;4878421;29;20285;-35
2022/09/17 06:33:52;;;;;;;6.47;2.63;;;18.30;51.60;;;;;;4877879;29;20197;-39
2022/09/17 06:36:22;;;;;;;4.25;2.20;;;18.30;51.60;;;;;;4878086;29;20204;-35
2022/09/17 06:38:55;;;;;;;6.10;2.75;;;18.30;51.70;;;;;;4878149;29;20224;-36
2022/09/17 06:41:26;;;;;;;4.93;2.47;;;18.30;51.70;;;;;;4877927;29;20217;-35
2022/09/17 06:44:00;;;;;;;4.85;2.22;;;18.20;51.70;;;;;;4878335;29;20201;-35
2022/09/17 06:46:31;;;;;;;5.75;2.70;;;18.20;51.70;;;;;;4878333;29;20248;-36
2022/09/17 06:49:01;;;;;;;6.40;2.30;;;18.20;51.80;;;;;;4878078;29;20236;-43
2022/09/17 06:51:32;;;;;;;6.70;2.55;;;18.20;51.80;;;;;;4878198;29;20820;-36
2022/09/17 06:54:05;;;;;;;5.32;2.58;;;18.20;51.80;;;;;;4878478;29;20216;-36
2022/09/17 06:56:35;;;;;;;5.00;2.35;;;18.10;51.90;;;;;;4877761;29;20317;-38
2022/09/17 06:59:06;;;;;;;6.50;2.38;;;18.10;51.80;;;;;;4877476;29;20213;-35
2022/09/17 07:01:37;;;;;;;4.85;2.20;;;18.10;51.90;;;;;;4877557;29;20228;-37
2022/09/17 07:04:07;;;;;;;7.40;2.60;;;18.10;51.90;;;;;;4876939;29;20202;-37
2022/09/17 07:06:38;;;;;;;5.47;2.67;;;18.00;51.80;;;;;;4878132;29;20214;-35
2022/09/17 07:09:11;;;;;;;5.40;2.33;;;18.00;51.80;;;;;;4877619;29;20732;-36
2022/09/17 07:11:41;;;;;;;7.40;2.53;;;18.00;51.80;;;;;;4877403;29;20212;-37
2022/09/17 07:14:12;;;;;;;6.15;2.60;;;18.00;51.90;;;;;;4877881;29;20208;-42
2022/09/17 07:16:43;;;;;;;4.97;2.42;;;17.90;51.90;;;;;;4877524;29;20213;-40
2022/09/17 07:19:13;;;;;;;6.60;2.53;;;17.90;51.90;;;;;;4877484;29;20206;-35
2022/09/17 07:21:44;;;;;;;5.43;2.83;;;17.90;51.90;;;;;;4877688;29;20599;-38
2022/09/17 07:24:17;;;;;;;6.57;2.70;;;17.90;52.00;;;;;;4877686;29;20716;-36
2022/09/17 07:26:47;;;;;;;6.85;2.90;;;17.90;52.00;;;;;;4876874;29;20310;-36
2022/09/17 07:29:19;;;;;;;5.25;2.40;;;17.80;51.90;;;;;;4876615;29;20319;-43
2022/09/17 07:31:50;;;;;;;5.60;2.85;;;17.80;51.90;;;;;;4877163;29;20210;-38
2022/09/17 07:34:20;;;;;;;4.05;2.35;;;17.80;52.00;;;;;;4876899;29;20576;-38
2022/09/17 07:36:51;;;;;;;4.50;2.67;;;17.70;51.90;;;;;;4876512;29;20238;-46
2022/09/17 07:39:24;;;;;;;4.47;2.63;;;17.70;51.90;;;;;;4876805;29;20206;-35
2022/09/17 07:41:54;;;;;;;5.40;2.55;;;17.70;52.00;;;;;;4877391;29;20236;-39
2022/09/17 07:44:25;;;;;;;5.97;2.55;;;17.60;52.00;;;;;;4877201;29;20209;-36
2022/09/17 07:46:56;;;;;;;4.57;3.00;;;17.60;52.00;;;;;;4877263;29;20233;-38
2022/09/17 07:49:27;;;;;;;5.43;2.35;;;17.60;52.00;;;;;;4876882;29;20230;-35
2022/09/17 07:51:58;;;;;;;5.03;2.53;;;17.60;52.10;;;;;;4877245;29;20198;-39
2022/09/17 07:54:31;;;;;;;4.72;2.65;;;17.60;52.00;;;;;;4877472;29;20293;-38
2022/09/17 07:57:02;;;;;;;3.97;2.22;;;17.50;52.00;;;;;;4876795;29;20229;-35
2022/09/17 07:59:32;;;;;;;5.93;2.20;;;17.50;52.00;;;;;;4876782;29;20212;-36
2022/09/17 08:02:03;;;;;;;5.63;2.75;;;17.50;52.00;;;;;;4876497;29;20782;-35
2022/09/17 08:04:34;;;;;;;4.65;2.60;;;17.40;52.00;;;;;;4876386;29;20205;-35
2022/09/17 08:07:05;;;;;;;5.13;2.22;;;17.40;52.00;;;;;;4879054;29;20213;-38
2022/09/17 08:09:37;;;;;;;5.32;2.65;;;17.40;52.10;;;;;;4877001;29;20277;-35
2022/09/17 08:12:08;;;;;;;4.15;2.42;;;17.30;52.10;;;;;;4876812;29;20673;-35
2022/09/17 08:14:39;;;;;;;4.45;2.55;;;17.30;52.10;;;;;;4876861;29;20685;-36
2022/09/17 08:17:10;;;;;;;3.38;2.50;;;17.30;52.10;;;;;;4876187;29;20705;-35
2022/09/17 08:19:41;;;;;;;4.03;2.38;;;17.20;52.10;;;;;;4876310;29;20217;-39
2022/09/17 08:22:12;;;;;;;6.35;2.53;;;17.20;52.10;;;;;;4876875;29;20211;-36
2022/09/17 08:24:44;;;;;;;6.88;2.97;;;17.20;52.10;;;;;;4876485;29;20206;-35
2022/09/17 08:27:15;;;;;;;5.05;2.50;;;17.20;52.10;;;;;;4876512;29;20222;-36
2022/09/17 08:29:46;;;;;;;5.43;2.65;;;17.10;52.20;;;;;;4876603;29;20233;-36
2022/09/17 08:32:16;;;;;;;4.45;2.70;;;17.10;52.20;;;;;;4876797;29;20639;-35
2022/09/17 08:34:47;;;;;;;6.25;3.55;;;17.00;52.20;;;;;;4876350;29;20202;-35
2022/09/17 08:37:18;;;;;;;4.00;2.63;;;17.00;52.20;;;;;;4876261;29;20738;-35
2022/09/17 08:39:50;;;;;;;4.32;2.85;;;17.00;52.30;;;;;;4876222;29;20216;-35
2022/09/17 08:42:28;;;;;;;4.65;3.20;;;16.90;52.30;;;;;;4876186;29;20201;-35
2022/09/17 08:45:00;;;;;;;4.60;2.83;;;16.90;52.30;;;;;;4876465;29;20205;-35
2022/09/17 08:47:37;;;;;;;5.50;2.92;;;16.90;52.30;;;;;;4876301;29;20225;-35
2022/09/17 08:50:09;;;;;;;4.55;2.80;;;16.90;52.40;;;;;;4876246;29;20225;-38
2022/09/17 08:53:15;;;;;;;4.63;2.58;;;16.80;52.30;;;;;;4875847;29;20201;-35
2022/09/17 08:55:53;;;;;;;4.38;2.70;;;16.80;52.30;;;;;;4874714;29;20613;-35
2022/09/17 08:58:34;;;;;;;5.00;2.97;;;16.80;52.30;;;;;;4875933;29;20220;-35
2022/09/17 09:01:16;;;;;;;4.43;2.63;;;16.80;52.30;;;;;;4876273;29;20205;-35
2022/09/17 09:04:05;;;;;;;4.90;2.97;;;16.70;52.30;;;;;;4876488;29;20202;-35
2022/09/17 09:06:40;;;;;;;5.05;2.88;;;16.70;52.40;;;;;;4875429;29;20220;-36
2022/09/17 09:09:15;;;;;;;5.10;2.90;;;16.70;52.40;;;;;;4875583;29;20651;-35
2022/09/17 09:11:50;;;;;;;4.18;2.65;;;16.60;52.40;;;;;;4875447;29;20570;-35
2022/09/17 09:14:25;;;;;;;5.43;3.53;;;16.60;52.50;;;;;;4875476;29;20208;-35
2022/09/17 09:16:58;;;;;;;5.85;3.10;;;16.60;52.50;;;;;;4876305;29;20686;-37
2022/09/17 09:19:30;;;;;;;3.90;2.63;;;16.50;52.50;;;;;;4876019;29;20212;-35
2022/09/17 09:22:27;;;;;;;3.90;2.83;;;16.50;52.50;;;;;;4875235;29;20205;-38
2022/09/17 09:25:07;;;;;;;4.47;2.75;;;16.50;52.60;;;;;;4875336;29;20689;-37
2022/09/17 09:27:48;;;;;;;4.22;2.75;;;16.50;52.50;;;;;;4874906;29;20217;-36
2022/09/17 09:30:22;;;;;;;3.50;2.95;;;16.50;52.50;;;;;;4875655;29;20615;-35
2022/09/17 09:33:00;;;;;;;3.67;2.38;;;16.50;52.50;;;;;;4875957;29;20212;-35
2022/09/17 09:35:43;;;;;;;5.65;2.97;;;16.40;52.60;;;;;;4876826;29;20197;-35
2022/09/17 09:38:25;;;;;;;5.10;2.83;;;16.40;52.60;;;;;;4877845;29;20225;-35
2022/09/17 09:40:59;;;;;;;4.15;2.67;;;16.40;52.60;;;;;;4878809;29;20676;-35
2022/09/17 09:43:41;;;;;;;4.47;3.05;;;16.40;52.60;;;;;;4879044;29;20228;-35
2022/09/17 09:46:37;;;;;;;3.65;2.78;;;16.30;52.70;;;;;;4878527;29;20684;-35
2022/09/17 09:49:18;;;;;;;4.78;2.70;;;16.30;52.70;;;;;;4878945;29;20229;-35
2022/09/17 09:52:00;;;;;;;4.07;2.85;;;16.20;52.70;;;;;;4878908;29;20201;-35
2022/09/17 09:54:51;;;;;;;5.20;3.00;;;16.30;52.70;;;;;;4879310;29;20551;-43
2022/09/17 09:57:32;;;;;;;3.42;2.60;;;16.20;52.70;;;;;;4878999;29;20236;-36
2022/09/17 10:00:34;;;;;;;4.43;2.80;;;16.30;52.70;;;;;;4879241;29;20213;-35
2022/09/17 10:03:12;;;;;;;4.38;2.47;;;16.20;52.70;;;;;;4881189;29;20230;-37
2022/09/17 10:05:53;;;;;;;4.65;2.58;;;16.20;52.70;;;;;;4878496;29;20204;-35
2022/09/17 10:08:24;;;;;;;4.75;2.63;;;16.20;52.70;;;;;;4878298;29;20229;-35
2022/09/17 10:10:59;;;;;;;4.05;3.00;;;16.20;52.80;;;;;;4878666;29;20213;-35
2022/09/17 10:13:31;;;;;;;3.90;2.60;;;16.10;52.70;;;;;;4878606;29;20232;-35
2022/09/17 10:16:19;;;;;;;5.47;3.00;;;16.10;52.80;;;;;;4878417;29;20201;-38
2022/09/17 10:18:50;;;;;;;6.20;2.60;;;16.10;52.80;;;;;;4878259;29;20205;-35
2022/09/17 10:21:31;;;;;;;4.78;2.83;;;16.10;52.80;;;;;;4878208;29;20206;-35
2022/09/17 10:24:03;;;;;;;3.53;2.55;;;16.10;52.80;;;;;;4878783;29;20202;-35
2022/09/17 10:26:36;;;;;;;3.90;2.47;;;16.00;52.80;;;;;;4878504;29;20222;-36
2022/09/17 10:29:14;;;;;;;4.32;2.92;;;16.00;52.80;;;;;;4876592;29;20233;-39
2022/09/17 10:31:54;;;;;;;5.18;3.05;;;16.10;52.80;;;;;;4885723;29;20209;-49
2022/09/17 10:34:26;;;;;;;4.75;2.70;;;16.10;52.90;;;;;;4885605;29;20209;-49
2022/09/17 10:36:58;;;;;;;5.05;2.75;;;16.10;52.90;;;;;;4877421;29;20265;-44
2022/09/17 10:39:37;;;;;;;3.38;2.53;;;16.10;52.90;;;;;;4897353;29;20212;-43
2022/09/17 10:42:14;;;;;;;3.28;2.70;;;16.00;52.90;;;;;;4880085;29;20197;-36
2022/09/17 10:44:54;;;;;;;4.15;2.53;;;16.00;52.90;;;;;;4897534;29;20205;-40
2022/09/17 10:47:30;;;;;;;4.32;2.78;;;16.00;52.90;;;;;;4890867;29;20577;-53
2022/09/17 10:50:02;;;;;;;5.35;3.00;;;15.90;53.00;;;;;;4864570;29;20623;-36
2022/09/17 10:52:35;;;;;;;3.65;2.47;;;15.90;53.00;;;;;;4885105;29;20197;-36
2022/09/17 10:55:24;;;;;;;3.85;2.50;;;15.90;53.00;;;;;;4897704;29;20219;-36
2022/09/17 10:58:17;;;;;;;5.22;2.72;;;15.90;53.60;;;;;;4897135;29;20693;-37
2022/09/17 11:00:57;;;;;;;3.83;2.83;;;15.90;53.00;;;;;;4897881;29;20197;-41
2022/09/17 11:03:50;;;;;;;3.35;2.50;;;15.90;53.00;;;;;;4897062;29;20207;-39
2022/09/17 11:06:42;;;;;;;5.65;3.40;;;15.90;53.00;;;;;;4897074;29;20680;-40
2022/09/17 11:09:22;;;;;;;3.83;2.90;;;15.80;53.00;;;;;;4895157;29;20229;-36
2022/09/17 11:12:04;;;;;;;4.20;2.97;;;15.80;53.00;;;;;;4875821;29;20204;-38
2022/09/17 11:14:51;;;;;;;4.55;2.97;;;15.80;53.00;;;;;;4859208;29;20211;-40
2022/09/17 11:17:45;;;;;;;5.07;3.28;;;15.80;53.10;;;;;;4879467;29;20558;-36
2022/09/17 11:20:31;;;;;;;3.05;2.38;;;15.70;53.00;;;;;;4896444;29;20201;-36
2022/09/17 11:23:21;;;;;;;5.53;3.10;;;15.70;53.00;;;;;;4897154;29;20704;-36
2022/09/17 11:25:57;;;;;;;5.68;3.30;;;15.70;53.00;;;;;;4859635;29;20202;-48
2022/09/17 11:28:47;;;;;;;4.38;3.15;;;15.60;53.00;;;;;;4894587;29;20276;-43
2022/09/17 11:31:30;;;;;;;5.00;2.70;;;15.60;53.00;;;;;;4896212;29;20209;-38
2022/09/17 11:34:27;;;;;;;3.35;2.80;;;15.60;53.00;;;;;;4892086;29;20198;-36
2022/09/17 11:37:06;;;;;;;5.03;3.22;;;15.60;53.00;;;;;;4883124;29;20217;-42
2022/09/17 11:39:43;;;;;;;4.63;2.75;;;15.60;53.00;;;;;;4896249;29;20197;-35
2022/09/17 11:42:19;;;;;;;5.60;3.10;;;15.60;53.10;;;;;;4885407;29;20649;-40
2022/09/17 11:44:55;;;;;;;4.88;2.83;;;15.50;53.00;;;;;;4879196;29;20216;-36
2022/09/17 11:47:30;;;;;;;4.93;3.10;;;15.50;53.10;;;;;;4880266;29;20217;-41
2022/09/17 11:50:05;;;;;;;4.10;2.90;;;15.50;53.10;;;;;;4859546;29;20230;-42
2022/09/17 11:52:45;;;;;;;3.95;3.00;;;15.50;53.10;;;;;;4878613;29;20200;-40
2022/09/17 11:55:25;;;;;;;4.50;2.78;;;15.40;53.10;;;;;;4897585;29;20204;-40
2022/09/17 11:58:01;;;;;;;5.80;3.00;;;15.40;53.10;;;;;;4895835;29;20224;-37
2022/09/17 12:00:44;;;;;;;3.53;2.67;;;15.40;53.10;;;;;;4894182;29;20197;-35
2022/09/17 12:03:22;;;;;;;4.70;2.85;;;15.40;53.10;;;;;;4877701;29;20620;-35
2022/09/17 12:05:56;;;;;;;5.72;3.30;;;15.40;53.10;;;;;;4877745;29;20205;-38
2022/09/17 12:08:34;;;;;;;5.53;3.38;;;15.40;53.10;;;;;;4876794;29;20217;-35
2022/09/17 12:11:14;;;;;;;4.93;3.38;;;15.30;53.00;;;;;;4877206;29;20205;-38
2022/09/17 12:13:48;;;;;;;4.95;3.10;;;15.30;53.10;;;;;;4876614;29;20205;-36
2022/09/17 12:16:23;;;;;;;5.20;3.10;;;15.30;53.10;;;;;;4876551;29;20695;-36
2022/09/17 12:19:04;;;;;;;5.72;3.40;;;15.30;53.00;;;;;;4876768;29;20201;-35
2022/09/17 12:21:40;;;;;;;4.55;3.13;;;15.30;53.10;;;;;;4876710;29;20205;-35
2022/09/17 12:24:21;;;;;;;7.85;3.60;;;15.20;53.10;;;;;;4876580;29;20201;-38
2022/09/17 12:27:04;;;;;;;5.32;3.83;;;15.20;53.70;;;;;;4876762;29;20225;-36
2022/09/17 12:29:48;;;;;;;5.40;3.30;;;15.20;53.10;;;;;;4876538;29;20233;-38
2022/09/17 12:32:35;;;;;;;5.05;3.25;;;15.20;53.10;;;;;;4876188;29;20220;-41
2022/09/17 12:35:19;;;;;;;6.40;3.30;;;15.20;53.10;;;;;;4876261;29;20205;-40
2022/09/17 12:38:07;;;;;;;5.20;3.20;;;15.10;53.10;;;;;;4876081;29;20651;-41
2022/09/17 12:40:45;;;;;;;6.03;3.15;;;15.10;53.10;;;;;;4876219;29;20570;-35
2022/09/17 12:43:38;;;;;;;6.03;3.47;;;15.10;53.10;;;;;;4876111;29;20197;-38
2022/09/17 12:46:23;;;;;;;7.63;3.30;;;15.10;53.10;;;;;;4875668;29;20209;-36
2022/09/17 12:49:26;;;;;;;6.35;3.22;;;15.10;53.10;;;;;;4876062;29;20205;-36
2022/09/17 12:52:00;;;;;;;6.72;3.47;;;15.10;53.20;;;;;;4874869;29;20288;-36
2022/09/17 12:54:55;;;;;;;4.95;3.08;;;15.00;53.10;;;;;;4876682;29;20214;-37
2022/09/17 12:57:37;;;;;;;5.72;3.35;;;15.00;53.10;;;;;;4876047;29;20228;-36
2022/09/17 13:00:12;;;;;;;6.80;3.40;;;15.00;53.20;;;;;;4875953;29;20201;-35
2022/09/17 13:02:48;;;;;;;8.88;4.10;;;15.00;53.20;;;;;;4875355;29;20197;-40
2022/09/17 13:05:50;;;;;;;9.25;4.05;;;15.00;53.20;;;;;;4875610;29;20201;-37
2022/09/17 13:08:42;;;;;;;8.25;4.35;;;15.00;53.20;;;;;;4876005;29;20224;-37
2022/09/17 13:11:36;;;;;;;6.90;3.80;;;15.00;53.20;;;;;;4879903;29;20584;-39
2022/09/17 13:14:18;;;;;;;5.18;3.58;;;14.90;53.10;;;;;;4879438;29;20684;-38
2022/09/17 13:16:55;;;;;;;6.15;3.92;;;14.90;53.10;;;;;;4879143;29;20712;-36
2022/09/17 13:19:38;;;;;;;6.50;3.63;;;14.90;53.10;;;;;;4879293;29;20201;-44
2022/09/17 13:22:11;;;;;;;6.15;3.35;;;14.90;53.10;;;;;;4879400;29;20204;-42
2022/09/17 13:24:42;;;;;;;9.40;4.38;;;14.90;53.10;;;;;;4879877;29;20212;-35
2022/09/17 13:27:24;;;;;;;7.07;4.20;;;14.80;53.10;;;;;;4879459;29;20263;-38
2022/09/17 13:30:03;;;;;;;5.95;3.63;;;14.80;53.10;;;;;;4878937;29;20237;-36
2022/09/17 13:33:02;;;;;;;5.85;3.50;;;14.80;53.10;;;;;;4879085;29;20581;-36